createdAt,value
2019-03-17T00:03:11.760Z,11.02
2019-03-17T00:08:08.904Z,11.00
2019-03-17T00:13:05.871Z,10.99
2019-03-17T00:18:02.526Z,10.99
2019-03-17T00:22:59.250Z,10.98
2019-03-17T00:27:58.349Z,10.92
2019-03-17T00:32:55.609Z,10.92
2019-03-17T00:37:52.442Z,10.90
2019-03-17T00:42:50.666Z,10.84
2019-03-17T00:47:49.434Z,10.85
2019-03-17T00:52:46.166Z,10.81
2019-03-17T00:57:42.993Z,10.81
2019-03-17T01:02:39.861Z,10.84
2019-03-17T01:07:39.708Z,10.89
2019-03-17T01:12:36.821Z,10.90
2019-03-17T01:17:33.488Z,10.86
2019-03-17T01:22:30.170Z,10.82
2019-03-17T01:27:26.845Z,10.89
2019-03-17T01:32:24.044Z,10.89
2019-03-17T01:37:20.884Z,10.88
2019-03-17T01:42:18.560Z,10.90
2019-03-17T01:47:19.244Z,10.85
2019-03-17T01:52:16.369Z,10.80
2019-03-17T01:57:17.481Z,10.80
2019-03-17T02:02:14.540Z,10.72
2019-03-17T02:07:11.278Z,10.68
2019-03-17T02:12:08.112Z,10.61
2019-03-17T02:17:04.843Z,10.59
2019-03-17T02:22:01.644Z,10.56
2019-03-17T02:26:59.749Z,10.50
2019-03-17T02:31:58.554Z,10.49
2019-03-17T02:36:57.117Z,10.58
2019-03-17T02:41:54.271Z,10.61
2019-03-17T02:46:52.203Z,10.64
2019-03-17T02:51:48.916Z,10.68
2019-03-17T02:56:45.843Z,10.61
2019-03-17T03:01:42.566Z,10.61
2019-03-17T03:06:39.459Z,10.62
2019-03-17T03:11:39.926Z,10.65
2019-03-17T03:16:37.284Z,10.63
2019-03-17T03:21:34.011Z,10.59
2019-03-17T03:26:33.682Z,10.54
2019-03-17T03:31:30.413Z,10.59
2019-03-17T03:36:27.582Z,10.60
2019-03-17T03:41:24.373Z,10.57
2019-03-17T03:46:22.586Z,10.60
2019-03-17T03:51:19.482Z,10.55
2019-03-17T03:56:16.475Z,10.54
2019-03-17T04:01:14.562Z,10.50
2019-03-17T04:06:25.754Z,10.52
2019-03-17T04:11:11.061Z,10.55
2019-03-17T04:16:07.774Z,10.54
2019-03-17T04:21:11.604Z,10.54
2019-03-17T04:26:08.705Z,10.61
2019-03-17T04:31:05.552Z,10.59
2019-03-17T04:36:03.482Z,10.60
2019-03-17T04:41:00.677Z,10.60
2019-03-17T04:45:58.385Z,10.60
2019-03-17T04:50:56.522Z,10.47
2019-03-17T04:55:53.845Z,10.50
2019-03-17T05:00:52.315Z,10.43
2019-03-17T05:05:50.414Z,10.47
2019-03-17T05:10:48.625Z,10.52
2019-03-17T05:15:45.341Z,10.49
2019-03-17T05:20:42.019Z,10.26
2019-03-17T05:25:40.739Z,10.23
2019-03-17T05:30:37.898Z,10.09
2019-03-17T05:35:35.771Z,10.00
2019-03-17T05:40:32.911Z,10.04
2019-03-17T05:45:29.360Z,10.01
2019-03-17T05:50:26.666Z,9.92
2019-03-17T05:55:25.389Z,9.79
2019-03-17T06:00:23.127Z,9.69
2019-03-17T06:05:19.900Z,9.46
2019-03-17T06:10:16.710Z,9.33
2019-03-17T06:15:14.044Z,9.22
2019-03-17T06:20:11.687Z,9.14
2019-03-17T06:25:09.411Z,9.09
2019-03-17T06:30:15.120Z,8.99
2019-03-17T06:35:12.992Z,8.93
2019-03-17T06:40:12.358Z,8.94
2019-03-17T06:45:09.912Z,8.93
2019-03-17T06:50:11.285Z,8.90
2019-03-17T06:55:19.279Z,8.80
2019-03-17T07:00:16.115Z,8.80
2019-03-17T07:05:12.129Z,8.83
2019-03-17T07:10:09.245Z,8.83
2019-03-17T07:15:07.764Z,8.84
2019-03-17T07:20:10.337Z,8.75
2019-03-17T07:25:07.552Z,8.76
2019-03-17T07:30:07.169Z,8.78
2019-03-17T07:35:03.983Z,8.81
2019-03-17T07:39:59.994Z,8.92
2019-03-17T07:44:56.007Z,8.97
2019-03-17T07:49:51.919Z,9.00
2019-03-17T07:54:48.465Z,8.96
2019-03-17T07:59:44.344Z,8.98
2019-03-17T08:04:43.071Z,8.98
2019-03-17T08:09:38.079Z,8.95
2019-03-17T08:14:34.042Z,8.93
2019-03-17T08:19:29.953Z,8.88
2019-03-17T08:24:26.667Z,8.90
2019-03-17T08:29:22.573Z,8.64
2019-03-17T08:34:18.501Z,7.42
2019-03-17T08:39:14.407Z,6.87
2019-03-17T08:44:10.314Z,6.72
2019-03-17T08:49:06.223Z,6.60
2019-03-17T08:54:07.082Z,6.56
2019-03-17T08:59:03.529Z,6.71
2019-03-17T09:03:59.535Z,6.96
2019-03-17T09:08:55.452Z,7.13
2019-03-17T09:13:51.772Z,7.29
2019-03-17T09:18:47.750Z,7.15
2019-03-17T09:23:43.669Z,7.26
2019-03-17T09:28:39.590Z,7.23
2019-03-17T09:33:36.499Z,7.41
2019-03-17T09:38:32.656Z,7.59
2019-03-17T09:43:28.546Z,7.56
2019-03-17T09:48:24.487Z,7.79
2019-03-17T09:53:20.400Z,7.60
2019-03-17T09:58:16.390Z,7.54
2019-03-17T10:03:12.297Z,7.65
2019-03-17T10:08:08.300Z,7.59
2019-03-17T10:13:04.212Z,7.68
2019-03-17T10:18:00.198Z,7.70
2019-03-17T10:22:56.102Z,7.74
2019-03-17T10:27:52.890Z,8.01
2019-03-17T10:32:48.853Z,8.25
2019-03-17T10:37:44.891Z,8.23
2019-03-17T10:42:40.827Z,8.42
2019-03-17T10:47:36.834Z,8.20
2019-03-17T10:52:32.961Z,8.26
2019-03-17T10:57:28.996Z,8.32
2019-03-17T11:02:24.942Z,8.71
2019-03-17T11:07:20.858Z,8.71
2019-03-17T11:12:16.922Z,8.65
2019-03-17T11:17:13.741Z,8.47
2019-03-17T11:22:09.815Z,8.29
2019-03-17T11:27:05.863Z,8.39
2019-03-17T11:32:02.063Z,7.97
2019-03-17T11:36:58.029Z,7.42
2019-03-17T11:41:54.100Z,7.52
2019-03-17T11:46:50.211Z,7.59
2019-03-17T11:51:46.254Z,7.41
2019-03-17T11:56:42.205Z,7.37
2019-03-17T12:01:38.322Z,7.46
2019-03-17T12:06:34.263Z,7.57
2019-03-17T12:11:30.190Z,7.69
2019-03-17T12:16:26.151Z,7.72
2019-03-17T12:21:22.190Z,7.97
2019-03-17T12:26:18.100Z,8.28
2019-03-17T12:31:14.014Z,8.61
2019-03-17T12:36:09.923Z,8.69
2019-03-17T12:41:05.828Z,8.44
2019-03-17T12:46:01.736Z,8.14
2019-03-17T12:50:57.673Z,8.09
2019-03-17T12:55:53.610Z,7.52
2019-03-17T13:00:49.514Z,7.34
2019-03-17T13:05:45.420Z,7.49
2019-03-17T13:10:41.420Z,7.61
2019-03-17T13:15:37.471Z,7.80
2019-03-17T13:20:33.488Z,8.28
2019-03-17T13:25:30.204Z,8.94
2019-03-17T13:30:26.179Z,8.78
2019-03-17T13:35:22.096Z,8.84
2019-03-17T13:40:28.714Z,8.93
2019-03-17T13:45:17.086Z,8.66
2019-03-17T13:50:14.496Z,8.68
2019-03-17T13:55:11.238Z,8.74
2019-03-17T14:00:12.794Z,9.03
2019-03-17T14:05:08.821Z,9.26
2019-03-17T14:10:13.848Z,9.22
2019-03-17T14:15:09.337Z,8.97
2019-03-17T14:20:08.786Z,5.77
2019-03-17T14:25:09.020Z,4.90
2019-03-17T14:30:08.893Z,5.02
2019-03-17T14:35:05.170Z,5.64
2019-03-17T14:40:01.454Z,5.79
2019-03-17T14:44:57.379Z,6.12
2019-03-17T14:49:53.345Z,6.85
2019-03-17T14:54:50.058Z,6.99
2019-03-17T14:59:46.030Z,6.95
2019-03-17T15:04:41.983Z,7.54
2019-03-17T15:09:37.960Z,7.76
2019-03-17T15:14:33.900Z,7.83
2019-03-17T15:19:29.831Z,8.09
2019-03-17T15:24:30.855Z,8.17
2019-03-17T15:29:27.019Z,8.18
2019-03-17T15:34:23.053Z,8.17
2019-03-17T15:39:19.050Z,8.18
2019-03-17T15:44:14.966Z,8.42
2019-03-17T15:49:10.873Z,8.34
2019-03-17T15:54:06.803Z,8.42
2019-03-17T15:59:03.471Z,8.34
2019-03-17T16:03:59.483Z,8.37
2019-03-17T16:08:55.446Z,8.23
2019-03-17T16:13:51.455Z,8.05
2019-03-17T16:18:47.393Z,8.07
2019-03-17T16:23:43.303Z,8.05
2019-03-17T16:28:39.248Z,7.96
2019-03-17T16:33:35.199Z,7.98
2019-03-17T16:38:31.220Z,7.79
2019-03-17T16:43:27.122Z,7.64
2019-03-17T16:48:23.217Z,7.62
2019-03-17T16:53:19.141Z,7.63
2019-03-17T16:58:15.113Z,7.61
2019-03-17T17:03:11.103Z,7.47
2019-03-17T17:08:07.359Z,7.23
2019-03-17T17:13:03.524Z,7.20
2019-03-17T17:17:59.655Z,6.95
2019-03-17T17:22:55.580Z,6.82
2019-03-17T17:27:51.589Z,6.78
2019-03-17T17:32:47.546Z,6.79
2019-03-17T17:37:43.491Z,6.75
2019-03-17T17:42:40.540Z,6.75
2019-03-17T17:47:36.483Z,6.80
2019-03-17T17:52:32.393Z,6.75
2019-03-17T17:57:28.376Z,6.78
2019-03-17T18:02:25.598Z,6.70
2019-03-17T18:07:21.603Z,6.65
2019-03-17T18:12:21.233Z,6.70
2019-03-17T18:17:15.406Z,6.71
2019-03-17T18:22:11.320Z,6.74
2019-03-17T18:27:07.221Z,6.72
2019-03-17T18:32:03.174Z,6.72
2019-03-17T18:36:59.257Z,6.74
2019-03-17T18:41:55.241Z,6.71
2019-03-17T18:46:51.187Z,6.72
2019-03-17T18:51:47.126Z,6.75
2019-03-17T18:56:43.065Z,6.74
2019-03-17T19:01:38.981Z,6.74
2019-03-17T19:06:34.907Z,6.78
2019-03-17T19:11:30.910Z,6.74
2019-03-17T19:16:26.906Z,6.73
2019-03-17T19:21:22.872Z,6.69
2019-03-17T19:26:18.867Z,6.66
2019-03-17T19:31:14.786Z,6.64
2019-03-17T19:36:10.695Z,6.65
2019-03-17T19:41:06.617Z,6.62
2019-03-17T19:46:02.634Z,6.52
2019-03-17T19:50:59.532Z,6.38
2019-03-17T19:55:55.780Z,6.31
2019-03-17T20:00:51.736Z,6.25
2019-03-17T20:05:47.647Z,6.16
2019-03-17T20:10:43.609Z,6.09
2019-03-17T20:15:40.044Z,6.09
2019-03-17T20:20:35.955Z,6.07
2019-03-17T20:25:31.866Z,6.09
2019-03-17T20:30:27.779Z,5.96
2019-03-17T20:35:23.690Z,5.95
2019-03-17T20:40:19.612Z,6.03
2019-03-17T20:45:15.680Z,6.01
2019-03-17T20:50:18.324Z,5.86
2019-03-17T20:55:14.786Z,5.79
2019-03-17T21:00:13.168Z,5.64
2019-03-17T21:05:10.435Z,5.61
2019-03-17T21:10:13.879Z,5.50
2019-03-17T21:15:12.381Z,5.45
2019-03-17T21:20:14.438Z,5.45
2019-03-17T21:25:12.715Z,5.50
2019-03-17T21:30:29.138Z,5.52
2019-03-17T21:35:26.223Z,5.51
2019-03-17T21:40:22.525Z,5.47
2019-03-17T21:45:19.585Z,5.37
2019-03-17T21:50:16.862Z,5.29
2019-03-17T21:55:13.686Z,5.06
2019-03-17T22:00:16.620Z,4.93
2019-03-17T22:05:12.880Z,4.80
2019-03-17T22:10:18.471Z,4.71
2019-03-17T22:15:15.552Z,4.68
2019-03-17T22:20:12.865Z,4.62
2019-03-17T22:25:13.200Z,4.62
2019-03-17T22:30:20.605Z,4.56
2019-03-17T22:35:16.724Z,4.57
2019-03-17T22:40:13.730Z,4.60
2019-03-17T22:45:11.269Z,4.56
2019-03-17T22:50:17.389Z,4.49
2019-03-17T22:55:13.927Z,4.51
2019-03-17T23:00:12.556Z,4.45
2019-03-17T23:05:08.559Z,4.36
2019-03-17T23:10:08.066Z,4.30
2019-03-17T23:15:06.475Z,4.33
2019-03-17T23:20:03.487Z,4.32
2019-03-17T23:24:59.397Z,4.28
2019-03-17T23:29:55.308Z,4.24
2019-03-17T23:34:51.213Z,4.17
2019-03-17T23:39:47.123Z,4.17
2019-03-17T23:44:48.997Z,4.14
2019-03-17T23:49:40.844Z,4.09
2019-03-17T23:54:37.450Z,4.03
2019-03-17T23:59:33.392Z,3.98
